sensor_id;sensor_type;location;lat;lon;timestamp;P1;durP1;ratioP1;P2;durP2;ratioP2
68633;SDS011;55625;47.072;22.192;2022-12-07T00:01:29;3.80;;;2.58;;
68633;SDS011;55625;47.072;22.192;2022-12-07T00:04:02;5.30;;;3.53;;
68633;SDS011;55625;47.072;22.192;2022-12-07T00:06:33;10.68;;;3.53;;
68633;SDS011;55625;47.072;22.192;2022-12-07T00:09:15;5.00;;;3.00;;
68633;SDS011;55625;47.072;22.192;2022-12-07T00:11:42;5.82;;;3.10;;
68633;SDS011;55625;47.072;22.192;2022-12-07T00:14:10;5.07;;;2.30;;
68633;SDS011;55625;47.072;22.192;2022-12-07T00:16:39;4.03;;;1.85;;
68633;SDS011;55625;47.072;22.192;2022-12-07T00:19:05;7.15;;;2.22;;
68633;SDS011;55625;47.072;22.192;2022-12-07T00:21:32;3.73;;;2.00;;
68633;SDS011;55625;47.072;22.192;2022-12-07T00:24:00;6.78;;;3.00;;
68633;SDS011;55625;47.072;22.192;2022-12-07T00:26:28;3.03;;;2.35;;
68633;SDS011;55625;47.072;22.192;2022-12-07T00:28:59;4.47;;;3.05;;
68633;SDS011;55625;47.072;22.192;2022-12-07T00:31:28;8.10;;;2.92;;
68633;SDS011;55625;47.072;22.192;2022-12-07T00:33:58;6.47;;;1.73;;
68633;SDS011;55625;47.072;22.192;2022-12-07T00:36:25;6.35;;;2.70;;
68633;SDS011;55625;47.072;22.192;2022-12-07T00:38:51;9.80;;;4.00;;
68633;SDS011;55625;47.072;22.192;2022-12-07T00:41:21;6.20;;;3.20;;
68633;SDS011;55625;47.072;22.192;2022-12-07T00:43:49;7.70;;;3.67;;
68633;SDS011;55625;47.072;22.192;2022-12-07T00:46:16;5.23;;;2.33;;
68633;SDS011;55625;47.072;22.192;2022-12-07T00:48:44;5.78;;;2.30;;
68633;SDS011;55625;47.072;22.192;2022-12-07T00:51:11;5.18;;;3.92;;
68633;SDS011;55625;47.072;22.192;2022-12-07T00:53:39;3.08;;;2.05;;
68633;SDS011;55625;47.072;22.192;2022-12-07T00:56:06;3.25;;;2.35;;
68633;SDS011;55625;47.072;22.192;2022-12-07T00:58:34;12.73;;;2.23;;
68633;SDS011;55625;47.072;22.192;2022-12-07T01:01:00;4.32;;;3.65;;
68633;SDS011;55625;47.072;22.192;2022-12-07T01:03:29;5.80;;;3.83;;
68633;SDS011;55625;47.072;22.192;2022-12-07T01:05:56;4.47;;;2.75;;
68633;SDS011;55625;47.072;22.192;2022-12-07T01:08:23;5.75;;;3.03;;
68633;SDS011;55625;47.072;22.192;2022-12-07T01:10:57;11.50;;;3.93;;
68633;SDS011;55625;47.072;22.192;2022-12-07T01:13:29;4.05;;;2.03;;
68633;SDS011;55625;47.072;22.192;2022-12-07T01:16:00;4.82;;;2.88;;
68633;SDS011;55625;47.072;22.192;2022-12-07T01:18:28;6.03;;;2.47;;
68633;SDS011;55625;47.072;22.192;2022-12-07T01:21:03;3.80;;;2.38;;
68633;SDS011;55625;47.072;22.192;2022-12-07T01:23:39;5.23;;;2.33;;
68633;SDS011;55625;47.072;22.192;2022-12-07T01:26:06;6.70;;;4.25;;
68633;SDS011;55625;47.072;22.192;2022-12-07T01:28:36;11.95;;;2.85;;
68633;SDS011;55625;47.072;22.192;2022-12-07T01:31:04;26.80;;;3.90;;
68633;SDS011;55625;47.072;22.192;2022-12-07T01:33:34;4.63;;;2.70;;
68633;SDS011;55625;47.072;22.192;2022-12-07T01:36:13;5.68;;;3.03;;
68633;SDS011;55625;47.072;22.192;2022-12-07T01:38:43;11.18;;;6.47;;
68633;SDS011;55625;47.072;22.192;2022-12-07T01:41:10;7.97;;;4.30;;
68633;SDS011;55625;47.072;22.192;2022-12-07T01:43:36;3.90;;;3.00;;
68633;SDS011;55625;47.072;22.192;2022-12-07T01:46:42;9.97;;;4.63;;
68633;SDS011;55625;47.072;22.192;2022-12-07T01:49:20;6.03;;;3.63;;
68633;SDS011;55625;47.072;22.192;2022-12-07T01:55:03;3.70;;;1.83;;
68633;SDS011;55625;47.072;22.192;2022-12-07T01:57:37;8.52;;;3.95;;
68633;SDS011;55625;47.072;22.192;2022-12-07T02:00:08;4.73;;;2.93;;
68633;SDS011;55625;47.072;22.192;2022-12-07T02:02:43;7.57;;;3.15;;
68633;SDS011;55625;47.072;22.192;2022-12-07T02:05:29;5.95;;;4.47;;
68633;SDS011;55625;47.072;22.192;2022-12-07T02:07:56;8.30;;;5.13;;
68633;SDS011;55625;47.072;22.192;2022-12-07T02:10:24;5.82;;;3.00;;
68633;SDS011;55625;47.072;22.192;2022-12-07T02:13:00;5.27;;;3.93;;
68633;SDS011;55625;47.072;22.192;2022-12-07T02:21:11;8.30;;;5.28;;
68633;SDS011;55625;47.072;22.192;2022-12-07T02:29:58;5.20;;;3.97;;
68633;SDS011;55625;47.072;22.192;2022-12-07T02:35:57;11.70;;;4.85;;
68633;SDS011;55625;47.072;22.192;2022-12-07T02:41:24;4.57;;;3.70;;
68633;SDS011;55625;47.072;22.192;2022-12-07T02:43:59;4.13;;;2.80;;
68633;SDS011;55625;47.072;22.192;2022-12-07T02:46:33;6.68;;;4.93;;
68633;SDS011;55625;47.072;22.192;2022-12-07T02:49:16;6.43;;;4.78;;
68633;SDS011;55625;47.072;22.192;2022-12-07T02:51:44;4.38;;;2.83;;
68633;SDS011;55625;47.072;22.192;2022-12-07T02:54:12;6.53;;;4.50;;
68633;SDS011;55625;47.072;22.192;2022-12-07T03:02:42;3.47;;;2.58;;
68633;SDS011;55625;47.072;22.192;2022-12-07T03:10:54;15.57;;;7.28;;
68633;SDS011;55625;47.072;22.192;2022-12-07T03:16:35;6.82;;;3.45;;
68633;SDS011;55625;47.072;22.192;2022-12-07T03:19:14;6.03;;;4.18;;
68633;SDS011;55625;47.072;22.192;2022-12-07T03:21:47;7.50;;;4.73;;
68633;SDS011;55625;47.072;22.192;2022-12-07T03:24:29;9.00;;;4.03;;
68633;SDS011;55625;47.072;22.192;2022-12-07T03:27:12;8.98;;;6.13;;
68633;SDS011;55625;47.072;22.192;2022-12-07T03:29:48;8.80;;;2.97;;
68633;SDS011;55625;47.072;22.192;2022-12-07T03:32:29;3.75;;;1.98;;
68633;SDS011;55625;47.072;22.192;2022-12-07T03:40:33;12.45;;;5.63;;
68633;SDS011;55625;47.072;22.192;2022-12-07T03:43:17;9.38;;;3.40;;
68633;SDS011;55625;47.072;22.192;2022-12-07T03:45:51;7.50;;;3.15;;
68633;SDS011;55625;47.072;22.192;2022-12-07T03:48:59;8.87;;;6.53;;
68633;SDS011;55625;47.072;22.192;2022-12-07T03:57:27;7.47;;;6.28;;
68633;SDS011;55625;47.072;22.192;2022-12-07T03:59:55;14.85;;;7.68;;
68633;SDS011;55625;47.072;22.192;2022-12-07T04:02:23;20.13;;;9.33;;
68633;SDS011;55625;47.072;22.192;2022-12-07T04:04:52;29.45;;;8.70;;
68633;SDS011;55625;47.072;22.192;2022-12-07T04:07:18;14.50;;;10.05;;
68633;SDS011;55625;47.072;22.192;2022-12-07T04:09:44;20.00;;;9.57;;
68633;SDS011;55625;47.072;22.192;2022-12-07T04:12:10;16.33;;;8.27;;
68633;SDS011;55625;47.072;22.192;2022-12-07T04:14:36;16.83;;;9.10;;
68633;SDS011;55625;47.072;22.192;2022-12-07T04:17:02;18.58;;;7.55;;
68633;SDS011;55625;47.072;22.192;2022-12-07T04:19:29;11.30;;;8.40;;
68633;SDS011;55625;47.072;22.192;2022-12-07T04:21:58;14.37;;;8.87;;
68633;SDS011;55625;47.072;22.192;2022-12-07T04:24:26;12.93;;;6.50;;
68633;SDS011;55625;47.072;22.192;2022-12-07T04:26:52;16.48;;;10.23;;
68633;SDS011;55625;47.072;22.192;2022-12-07T04:29:19;22.33;;;12.05;;
68633;SDS011;55625;47.072;22.192;2022-12-07T04:31:45;18.98;;;10.45;;
68633;SDS011;55625;47.072;22.192;2022-12-07T04:34:11;20.07;;;9.93;;
68633;SDS011;55625;47.072;22.192;2022-12-07T04:36:38;14.88;;;8.55;;
68633;SDS011;55625;47.072;22.192;2022-12-07T04:39:05;8.75;;;5.07;;
68633;SDS011;55625;47.072;22.192;2022-12-07T04:41:32;11.10;;;8.27;;
68633;SDS011;55625;47.072;22.192;2022-12-07T04:44:02;12.32;;;6.45;;
68633;SDS011;55625;47.072;22.192;2022-12-07T04:46:32;15.53;;;5.33;;
68633;SDS011;55625;47.072;22.192;2022-12-07T04:48:58;6.43;;;5.25;;
68633;SDS011;55625;47.072;22.192;2022-12-07T04:51:25;10.65;;;6.97;;
68633;SDS011;55625;47.072;22.192;2022-12-07T04:53:53;15.10;;;8.00;;
68633;SDS011;55625;47.072;22.192;2022-12-07T04:56:20;8.20;;;6.75;;
68633;SDS011;55625;47.072;22.192;2022-12-07T04:58:46;12.30;;;7.17;;
68633;SDS011;55625;47.072;22.192;2022-12-07T05:01:13;14.40;;;7.57;;
68633;SDS011;55625;47.072;22.192;2022-12-07T05:03:41;20.05;;;9.02;;
68633;SDS011;55625;47.072;22.192;2022-12-07T05:06:07;18.73;;;9.02;;
68633;SDS011;55625;47.072;22.192;2022-12-07T05:08:34;15.48;;;9.38;;
68633;SDS011;55625;47.072;22.192;2022-12-07T05:11:01;11.60;;;6.73;;
68633;SDS011;55625;47.072;22.192;2022-12-07T05:13:28;15.38;;;6.97;;
68633;SDS011;55625;47.072;22.192;2022-12-07T05:15:54;12.40;;;6.40;;
68633;SDS011;55625;47.072;22.192;2022-12-07T05:18:20;17.35;;;10.43;;
68633;SDS011;55625;47.072;22.192;2022-12-07T05:20:46;7.70;;;5.63;;
68633;SDS011;55625;47.072;22.192;2022-12-07T05:23:11;14.02;;;7.93;;
68633;SDS011;55625;47.072;22.192;2022-12-07T05:25:38;15.63;;;6.68;;
68633;SDS011;55625;47.072;22.192;2022-12-07T05:28:04;17.50;;;7.90;;
68633;SDS011;55625;47.072;22.192;2022-12-07T05:30:30;13.90;;;7.30;;
68633;SDS011;55625;47.072;22.192;2022-12-07T05:32:56;18.45;;;7.65;;
68633;SDS011;55625;47.072;22.192;2022-12-07T05:35:22;11.15;;;9.15;;
68633;SDS011;55625;47.072;22.192;2022-12-07T05:37:48;13.00;;;6.90;;
68633;SDS011;55625;47.072;22.192;2022-12-07T05:40:14;10.30;;;7.80;;
68633;SDS011;55625;47.072;22.192;2022-12-07T05:42:41;25.60;;;11.70;;
68633;SDS011;55625;47.072;22.192;2022-12-07T05:45:08;26.90;;;14.93;;
68633;SDS011;55625;47.072;22.192;2022-12-07T05:47:35;31.48;;;15.07;;
68633;SDS011;55625;47.072;22.192;2022-12-07T05:50:01;18.47;;;9.73;;
68633;SDS011;55625;47.072;22.192;2022-12-07T05:52:29;15.30;;;10.30;;
68633;SDS011;55625;47.072;22.192;2022-12-07T05:54:55;25.45;;;12.95;;
68633;SDS011;55625;47.072;22.192;2022-12-07T05:57:21;17.50;;;11.07;;
68633;SDS011;55625;47.072;22.192;2022-12-07T05:59:47;17.97;;;9.70;;
68633;SDS011;55625;47.072;22.192;2022-12-07T06:02:14;15.77;;;10.98;;
68633;SDS011;55625;47.072;22.192;2022-12-07T06:04:41;15.45;;;9.40;;
68633;SDS011;55625;47.072;22.192;2022-12-07T06:07:11;12.60;;;7.20;;
68633;SDS011;55625;47.072;22.192;2022-12-07T06:09:40;17.60;;;11.63;;
68633;SDS011;55625;47.072;22.192;2022-12-07T06:12:06;15.82;;;12.23;;
68633;SDS011;55625;47.072;22.192;2022-12-07T06:14:53;21.85;;;14.15;;
68633;SDS011;55625;47.072;22.192;2022-12-07T06:17:19;9.77;;;8.23;;
68633;SDS011;55625;47.072;22.192;2022-12-07T06:19:45;16.30;;;7.23;;
68633;SDS011;55625;47.072;22.192;2022-12-07T06:22:11;16.77;;;11.85;;
68633;SDS011;55625;47.072;22.192;2022-12-07T06:24:37;16.55;;;8.65;;
68633;SDS011;55625;47.072;22.192;2022-12-07T06:27:04;10.67;;;6.37;;
68633;SDS011;55625;47.072;22.192;2022-12-07T06:29:30;26.40;;;12.00;;
68633;SDS011;55625;47.072;22.192;2022-12-07T06:31:57;12.40;;;8.13;;
68633;SDS011;55625;47.072;22.192;2022-12-07T06:34:23;18.10;;;10.10;;
68633;SDS011;55625;47.072;22.192;2022-12-07T06:36:51;12.73;;;8.50;;
68633;SDS011;55625;47.072;22.192;2022-12-07T06:39:21;13.50;;;8.33;;
68633;SDS011;55625;47.072;22.192;2022-12-07T06:41:49;7.70;;;5.72;;
68633;SDS011;55625;47.072;22.192;2022-12-07T06:44:17;17.83;;;8.38;;
68633;SDS011;55625;47.072;22.192;2022-12-07T06:46:43;7.93;;;4.35;;
68633;SDS011;55625;47.072;22.192;2022-12-07T06:49:09;11.50;;;7.10;;
68633;SDS011;55625;47.072;22.192;2022-12-07T06:51:35;7.00;;;4.43;;
68633;SDS011;55625;47.072;22.192;2022-12-07T06:54:05;13.90;;;6.70;;
68633;SDS011;55625;47.072;22.192;2022-12-07T06:56:36;9.88;;;5.63;;
68633;SDS011;55625;47.072;22.192;2022-12-07T06:59:02;7.85;;;4.00;;
68633;SDS011;55625;47.072;22.192;2022-12-07T07:01:31;12.68;;;6.50;;
68633;SDS011;55625;47.072;22.192;2022-12-07T07:03:58;25.80;;;6.73;;
68633;SDS011;55625;47.072;22.192;2022-12-07T07:06:25;7.90;;;4.25;;
68633;SDS011;55625;47.072;22.192;2022-12-07T07:08:51;24.10;;;8.88;;
68633;SDS011;55625;47.072;22.192;2022-12-07T07:11:17;10.15;;;7.30;;
68633;SDS011;55625;47.072;22.192;2022-12-07T07:13:44;11.82;;;6.80;;
68633;SDS011;55625;47.072;22.192;2022-12-07T07:16:10;13.80;;;7.10;;
68633;SDS011;55625;47.072;22.192;2022-12-07T07:18:36;10.98;;;6.78;;
68633;SDS011;55625;47.072;22.192;2022-12-07T07:21:02;12.98;;;7.18;;
68633;SDS011;55625;47.072;22.192;2022-12-07T07:23:28;15.77;;;8.87;;
68633;SDS011;55625;47.072;22.192;2022-12-07T07:25:54;20.05;;;10.80;;
68633;SDS011;55625;47.072;22.192;2022-12-07T07:28:20;17.13;;;9.15;;
68633;SDS011;55625;47.072;22.192;2022-12-07T07:30:46;11.20;;;7.47;;
68633;SDS011;55625;47.072;22.192;2022-12-07T07:33:12;8.85;;;6.97;;
68633;SDS011;55625;47.072;22.192;2022-12-07T07:35:38;9.93;;;6.78;;
68633;SDS011;55625;47.072;22.192;2022-12-07T07:38:04;11.27;;;7.05;;
68633;SDS011;55625;47.072;22.192;2022-12-07T07:40:31;16.02;;;8.23;;
68633;SDS011;55625;47.072;22.192;2022-12-07T07:42:57;10.63;;;6.03;;
68633;SDS011;55625;47.072;22.192;2022-12-07T07:45:24;9.70;;;5.32;;
68633;SDS011;55625;47.072;22.192;2022-12-07T07:47:51;10.18;;;7.20;;
68633;SDS011;55625;47.072;22.192;2022-12-07T07:50:18;12.43;;;5.10;;
68633;SDS011;55625;47.072;22.192;2022-12-07T07:52:44;9.50;;;4.83;;
68633;SDS011;55625;47.072;22.192;2022-12-07T07:55:11;7.32;;;3.42;;
68633;SDS011;55625;47.072;22.192;2022-12-07T07:57:38;10.48;;;4.88;;
68633;SDS011;55625;47.072;22.192;2022-12-07T08:00:11;5.18;;;2.60;;
68633;SDS011;55625;47.072;22.192;2022-12-07T08:02:39;7.78;;;5.78;;
68633;SDS011;55625;47.072;22.192;2022-12-07T08:05:06;12.03;;;5.43;;
68633;SDS011;55625;47.072;22.192;2022-12-07T08:07:32;13.65;;;5.63;;
68633;SDS011;55625;47.072;22.192;2022-12-07T08:09:58;15.98;;;7.20;;
68633;SDS011;55625;47.072;22.192;2022-12-07T08:12:24;13.37;;;6.33;;
68633;SDS011;55625;47.072;22.192;2022-12-07T08:14:49;9.90;;;3.83;;
68633;SDS011;55625;47.072;22.192;2022-12-07T08:17:15;6.03;;;3.80;;
68633;SDS011;55625;47.072;22.192;2022-12-07T08:19:41;12.40;;;5.83;;
68633;SDS011;55625;47.072;22.192;2022-12-07T08:22:07;14.98;;;7.20;;
68633;SDS011;55625;47.072;22.192;2022-12-07T08:24:33;10.40;;;5.93;;
68633;SDS011;55625;47.072;22.192;2022-12-07T08:27:00;8.10;;;4.03;;
68633;SDS011;55625;47.072;22.192;2022-12-07T08:29:27;10.43;;;5.45;;
68633;SDS011;55625;47.072;22.192;2022-12-07T08:31:54;8.25;;;4.43;;
68633;SDS011;55625;47.072;22.192;2022-12-07T08:34:20;6.07;;;4.50;;
68633;SDS011;55625;47.072;22.192;2022-12-07T08:36:45;6.00;;;3.88;;
68633;SDS011;55625;47.072;22.192;2022-12-07T08:39:11;5.70;;;4.95;;
68633;SDS011;55625;47.072;22.192;2022-12-07T08:41:37;7.07;;;3.90;;
68633;SDS011;55625;47.072;22.192;2022-12-07T08:44:03;7.60;;;4.00;;
68633;SDS011;55625;47.072;22.192;2022-12-07T08:46:44;7.80;;;6.13;;
68633;SDS011;55625;47.072;22.192;2022-12-07T08:49:18;8.23;;;4.57;;
68633;SDS011;55625;47.072;22.192;2022-12-07T08:51:51;7.20;;;4.40;;
68633;SDS011;55625;47.072;22.192;2022-12-07T08:54:17;10.07;;;5.37;;
68633;SDS011;55625;47.072;22.192;2022-12-07T08:56:44;5.28;;;4.07;;
68633;SDS011;55625;47.072;22.192;2022-12-07T08:59:13;13.43;;;5.78;;
68633;SDS011;55625;47.072;22.192;2022-12-07T09:01:42;18.77;;;7.55;;
68633;SDS011;55625;47.072;22.192;2022-12-07T09:04:08;17.17;;;8.90;;
68633;SDS011;55625;47.072;22.192;2022-12-07T09:06:34;19.10;;;9.23;;
68633;SDS011;55625;47.072;22.192;2022-12-07T09:09:00;17.88;;;8.07;;
68633;SDS011;55625;47.072;22.192;2022-12-07T09:11:28;9.23;;;4.22;;
68633;SDS011;55625;47.072;22.192;2022-12-07T09:13:54;7.25;;;3.88;;
68633;SDS011;55625;47.072;22.192;2022-12-07T09:16:20;11.57;;;4.20;;
68633;SDS011;55625;47.072;22.192;2022-12-07T09:18:47;10.65;;;5.63;;
68633;SDS011;55625;47.072;22.192;2022-12-07T09:21:12;15.45;;;7.07;;
68633;SDS011;55625;47.072;22.192;2022-12-07T09:23:38;11.93;;;5.77;;
68633;SDS011;55625;47.072;22.192;2022-12-07T09:26:05;10.52;;;5.38;;
68633;SDS011;55625;47.072;22.192;2022-12-07T09:28:31;9.05;;;5.20;;
68633;SDS011;55625;47.072;22.192;2022-12-07T09:30:57;14.33;;;9.93;;
68633;SDS011;55625;47.072;22.192;2022-12-07T09:33:23;10.57;;;5.33;;
68633;SDS011;55625;47.072;22.192;2022-12-07T09:35:50;9.50;;;5.95;;
68633;SDS011;55625;47.072;22.192;2022-12-07T09:38:18;9.90;;;5.32;;
68633;SDS011;55625;47.072;22.192;2022-12-07T09:40:44;19.73;;;9.07;;
68633;SDS011;55625;47.072;22.192;2022-12-07T09:43:29;13.40;;;7.20;;
68633;SDS011;55625;47.072;22.192;2022-12-07T09:45:55;9.00;;;4.55;;
68633;SDS011;55625;47.072;22.192;2022-12-07T09:51:02;10.57;;;3.38;;
68633;SDS011;55625;47.072;22.192;2022-12-07T09:53:39;3.70;;;1.83;;
68633;SDS011;55625;47.072;22.192;2022-12-07T09:56:06;3.00;;;1.45;;
68633;SDS011;55625;47.072;22.192;2022-12-07T09:58:36;3.50;;;1.35;;
68633;SDS011;55625;47.072;22.192;2022-12-07T10:01:11;2.40;;;0.98;;
68633;SDS011;55625;47.072;22.192;2022-12-07T10:03:53;1.80;;;0.90;;
68633;SDS011;55625;47.072;22.192;2022-12-07T10:06:25;5.20;;;1.17;;
68633;SDS011;55625;47.072;22.192;2022-12-07T10:08:51;1.63;;;0.82;;
68633;SDS011;55625;47.072;22.192;2022-12-07T10:11:17;2.50;;;1.55;;
68633;SDS011;55625;47.072;22.192;2022-12-07T10:13:48;2.07;;;1.30;;
68633;SDS011;55625;47.072;22.192;2022-12-07T10:18:51;2.97;;;0.95;;
68633;SDS011;55625;47.072;22.192;2022-12-07T10:21:18;46.78;;;4.32;;
68633;SDS011;55625;47.072;22.192;2022-12-07T10:26:50;3.83;;;2.03;;
68633;SDS011;55625;47.072;22.192;2022-12-07T10:32:02;4.15;;;2.15;;
68633;SDS011;55625;47.072;22.192;2022-12-07T10:34:38;33.15;;;8.30;;
68633;SDS011;55625;47.072;22.192;2022-12-07T10:39:44;4.53;;;2.03;;
68633;SDS011;55625;47.072;22.192;2022-12-07T10:45:09;26.35;;;3.55;;
68633;SDS011;55625;47.072;22.192;2022-12-07T10:48:26;6.35;;;2.70;;
68633;SDS011;55625;47.072;22.192;2022-12-07T10:59:45;35.97;;;5.25;;
68633;SDS011;55625;47.072;22.192;2022-12-07T11:02:38;3.70;;;2.20;;
68633;SDS011;55625;47.072;22.192;2022-12-07T11:13:47;3.35;;;1.13;;
68633;SDS011;55625;47.072;22.192;2022-12-07T11:16:52;52.22;;;4.78;;
68633;SDS011;55625;47.072;22.192;2022-12-07T11:22:31;3.00;;;0.97;;
68633;SDS011;55625;47.072;22.192;2022-12-07T11:25:37;24.73;;;4.05;;
68633;SDS011;55625;47.072;22.192;2022-12-07T11:34:13;27.15;;;4.70;;
68633;SDS011;55625;47.072;22.192;2022-12-07T11:37:08;6.63;;;2.17;;
68633;SDS011;55625;47.072;22.192;2022-12-07T11:39:56;4.50;;;2.08;;
68633;SDS011;55625;47.072;22.192;2022-12-07T11:42:36;2.13;;;1.15;;
68633;SDS011;55625;47.072;22.192;2022-12-07T11:47:48;1.77;;;0.93;;
68633;SDS011;55625;47.072;22.192;2022-12-07T11:50:33;2.70;;;0.83;;
68633;SDS011;55625;47.072;22.192;2022-12-07T11:55:41;10.93;;;2.20;;
68633;SDS011;55625;47.072;22.192;2022-12-07T12:06:50;4.88;;;1.92;;
68633;SDS011;55625;47.072;22.192;2022-12-07T12:20:44;46.42;;;6.00;;
68633;SDS011;55625;47.072;22.192;2022-12-07T12:26:14;3.50;;;0.98;;
68633;SDS011;55625;47.072;22.192;2022-12-07T12:28:57;1.48;;;0.68;;
68633;SDS011;55625;47.072;22.192;2022-12-07T12:31:43;6.67;;;1.57;;
68633;SDS011;55625;47.072;22.192;2022-12-07T12:34:32;14.63;;;6.30;;
68633;SDS011;55625;47.072;22.192;2022-12-07T12:37:26;6.10;;;2.10;;
68633;SDS011;55625;47.072;22.192;2022-12-07T12:42:48;2.13;;;0.50;;
68633;SDS011;55625;47.072;22.192;2022-12-07T12:50:27;2.28;;;0.93;;
68633;SDS011;55625;47.072;22.192;2022-12-07T12:53:05;6.78;;;2.28;;
68633;SDS011;55625;47.072;22.192;2022-12-07T12:58:32;51.67;;;8.30;;
68633;SDS011;55625;47.072;22.192;2022-12-07T13:03:53;2.13;;;1.00;;
68633;SDS011;55625;47.072;22.192;2022-12-07T13:08:53;6.22;;;1.63;;
68633;SDS011;55625;47.072;22.192;2022-12-07T13:11:39;28.63;;;3.43;;
68633;SDS011;55625;47.072;22.192;2022-12-07T13:17:07;4.45;;;0.85;;
68633;SDS011;55625;47.072;22.192;2022-12-07T13:27:46;3.55;;;1.52;;
68633;SDS011;55625;47.072;22.192;2022-12-07T13:30:46;4.85;;;2.85;;
68633;SDS011;55625;47.072;22.192;2022-12-07T13:33:38;10.95;;;5.00;;
68633;SDS011;55625;47.072;22.192;2022-12-07T13:36:04;17.85;;;8.05;;
68633;SDS011;55625;47.072;22.192;2022-12-07T13:38:37;26.33;;;13.60;;
68633;SDS011;55625;47.072;22.192;2022-12-07T13:43:48;10.98;;;5.07;;
68633;SDS011;55625;47.072;22.192;2022-12-07T13:46:35;63.55;;;22.05;;
68633;SDS011;55625;47.072;22.192;2022-12-07T13:49:29;32.15;;;17.42;;
68633;SDS011;55625;47.072;22.192;2022-12-07T13:52:12;19.33;;;9.77;;
68633;SDS011;55625;47.072;22.192;2022-12-07T13:54:45;17.95;;;7.00;;
68633;SDS011;55625;47.072;22.192;2022-12-07T13:57:15;20.42;;;7.85;;
68633;SDS011;55625;47.072;22.192;2022-12-07T13:59:42;33.22;;;7.43;;
68633;SDS011;55625;47.072;22.192;2022-12-07T14:02:28;14.55;;;7.85;;
68633;SDS011;55625;47.072;22.192;2022-12-07T14:07:48;28.45;;;16.77;;
68633;SDS011;55625;47.072;22.192;2022-12-07T14:11:08;35.28;;;18.90;;
68633;SDS011;55625;47.072;22.192;2022-12-07T14:13:33;25.60;;;12.15;;
68633;SDS011;55625;47.072;22.192;2022-12-07T14:16:34;18.75;;;9.00;;
68633;SDS011;55625;47.072;22.192;2022-12-07T14:19:06;41.63;;;18.37;;
68633;SDS011;55625;47.072;22.192;2022-12-07T14:25:00;50.65;;;18.27;;
68633;SDS011;55625;47.072;22.192;2022-12-07T14:27:55;13.30;;;7.60;;
68633;SDS011;55625;47.072;22.192;2022-12-07T14:30:25;7.75;;;4.90;;
68633;SDS011;55625;47.072;22.192;2022-12-07T14:33:01;10.10;;;3.73;;
68633;SDS011;55625;47.072;22.192;2022-12-07T14:35:29;6.60;;;2.53;;
68633;SDS011;55625;47.072;22.192;2022-12-07T14:37:56;5.60;;;2.70;;
68633;SDS011;55625;47.072;22.192;2022-12-07T14:40:24;11.15;;;3.22;;
68633;SDS011;55625;47.072;22.192;2022-12-07T14:42:56;5.90;;;4.38;;
68633;SDS011;55625;47.072;22.192;2022-12-07T14:45:27;12.40;;;5.63;;
68633;SDS011;55625;47.072;22.192;2022-12-07T14:47:53;6.95;;;4.47;;
68633;SDS011;55625;47.072;22.192;2022-12-07T14:50:20;8.80;;;5.05;;
68633;SDS011;55625;47.072;22.192;2022-12-07T14:52:48;17.00;;;7.03;;
68633;SDS011;55625;47.072;22.192;2022-12-07T14:55:25;7.90;;;5.82;;
68633;SDS011;55625;47.072;22.192;2022-12-07T14:57:54;10.80;;;4.57;;
68633;SDS011;55625;47.072;22.192;2022-12-07T15:00:21;10.77;;;5.07;;
68633;SDS011;55625;47.072;22.192;2022-12-07T15:02:50;9.43;;;6.38;;
68633;SDS011;55625;47.072;22.192;2022-12-07T15:05:17;12.07;;;7.30;;
68633;SDS011;55625;47.072;22.192;2022-12-07T15:07:44;12.65;;;7.95;;
68633;SDS011;55625;47.072;22.192;2022-12-07T15:10:17;17.13;;;8.37;;
68633;SDS011;55625;47.072;22.192;2022-12-07T15:12:46;11.15;;;7.07;;
68633;SDS011;55625;47.072;22.192;2022-12-07T15:15:12;10.85;;;7.45;;
68633;SDS011;55625;47.072;22.192;2022-12-07T15:17:39;12.32;;;8.02;;
68633;SDS011;55625;47.072;22.192;2022-12-07T15:20:07;13.97;;;8.33;;
68633;SDS011;55625;47.072;22.192;2022-12-07T15:22:37;7.05;;;4.47;;
68633;SDS011;55625;47.072;22.192;2022-12-07T15:25:04;11.90;;;7.13;;
68633;SDS011;55625;47.072;22.192;2022-12-07T15:27:31;14.25;;;7.00;;
68633;SDS011;55625;47.072;22.192;2022-12-07T15:29:57;11.60;;;7.03;;
68633;SDS011;55625;47.072;22.192;2022-12-07T15:32:23;14.67;;;10.27;;
68633;SDS011;55625;47.072;22.192;2022-12-07T15:34:48;16.58;;;6.22;;
68633;SDS011;55625;47.072;22.192;2022-12-07T15:37:15;9.48;;;7.20;;
68633;SDS011;55625;47.072;22.192;2022-12-07T15:39:41;8.03;;;5.13;;
68633;SDS011;55625;47.072;22.192;2022-12-07T15:42:07;11.05;;;5.35;;
68633;SDS011;55625;47.072;22.192;2022-12-07T15:44:33;9.60;;;5.13;;
68633;SDS011;55625;47.072;22.192;2022-12-07T15:47:17;14.95;;;9.20;;
68633;SDS011;55625;47.072;22.192;2022-12-07T15:49:43;13.53;;;8.17;;
68633;SDS011;55625;47.072;22.192;2022-12-07T15:52:09;14.20;;;9.50;;
68633;SDS011;55625;47.072;22.192;2022-12-07T15:54:34;17.60;;;10.43;;
68633;SDS011;55625;47.072;22.192;2022-12-07T15:57:01;14.47;;;8.23;;
68633;SDS011;55625;47.072;22.192;2022-12-07T15:59:27;18.88;;;9.77;;
68633;SDS011;55625;47.072;22.192;2022-12-07T16:01:53;17.40;;;11.23;;
68633;SDS011;55625;47.072;22.192;2022-12-07T16:04:20;16.48;;;9.27;;
68633;SDS011;55625;47.072;22.192;2022-12-07T16:06:46;18.90;;;11.23;;
68633;SDS011;55625;47.072;22.192;2022-12-07T16:09:12;24.27;;;9.63;;
68633;SDS011;55625;47.072;22.192;2022-12-07T16:11:38;17.88;;;11.52;;
68633;SDS011;55625;47.072;22.192;2022-12-07T16:14:03;16.05;;;10.18;;
68633;SDS011;55625;47.072;22.192;2022-12-07T16:16:29;17.40;;;10.73;;
68633;SDS011;55625;47.072;22.192;2022-12-07T16:18:56;20.40;;;10.80;;
68633;SDS011;55625;47.072;22.192;2022-12-07T16:21:22;15.07;;;9.25;;
68633;SDS011;55625;47.072;22.192;2022-12-07T16:23:48;26.85;;;15.10;;
68633;SDS011;55625;47.072;22.192;2022-12-07T16:26:15;26.70;;;15.23;;
68633;SDS011;55625;47.072;22.192;2022-12-07T16:28:44;38.80;;;26.65;;
68633;SDS011;55625;47.072;22.192;2022-12-07T16:31:14;40.05;;;24.88;;
68633;SDS011;55625;47.072;22.192;2022-12-07T16:33:42;48.90;;;24.50;;
68633;SDS011;55625;47.072;22.192;2022-12-07T16:36:09;42.33;;;20.90;;
68633;SDS011;55625;47.072;22.192;2022-12-07T16:38:43;41.05;;;21.00;;
68633;SDS011;55625;47.072;22.192;2022-12-07T16:41:10;44.55;;;22.73;;
68633;SDS011;55625;47.072;22.192;2022-12-07T16:43:36;35.67;;;20.38;;
68633;SDS011;55625;47.072;22.192;2022-12-07T16:46:03;51.80;;;23.33;;
68633;SDS011;55625;47.072;22.192;2022-12-07T16:48:29;41.70;;;21.17;;
68633;SDS011;55625;47.072;22.192;2022-12-07T16:50:55;43.35;;;23.95;;
68633;SDS011;55625;47.072;22.192;2022-12-07T16:53:22;70.25;;;26.65;;
68633;SDS011;55625;47.072;22.192;2022-12-07T16:55:49;54.95;;;29.40;;
68633;SDS011;55625;47.072;22.192;2022-12-07T16:58:16;49.60;;;25.38;;
68633;SDS011;55625;47.072;22.192;2022-12-07T17:00:42;54.47;;;32.73;;
68633;SDS011;55625;47.072;22.192;2022-12-07T17:03:09;62.45;;;36.60;;
68633;SDS011;55625;47.072;22.192;2022-12-07T17:05:43;97.63;;;43.30;;
68633;SDS011;55625;47.072;22.192;2022-12-07T17:08:10;97.18;;;43.10;;
68633;SDS011;55625;47.072;22.192;2022-12-07T17:10:39;46.03;;;29.20;;
68633;SDS011;55625;47.072;22.192;2022-12-07T17:13:07;57.87;;;29.00;;
68633;SDS011;55625;47.072;22.192;2022-12-07T17:16:03;56.80;;;31.33;;
68633;SDS011;55625;47.072;22.192;2022-12-07T17:18:35;55.50;;;31.92;;
68633;SDS011;55625;47.072;22.192;2022-12-07T17:21:05;47.25;;;26.98;;